Terminal Aerodrome Forecast
Issued by NWS Twin Cities, MN

Home | Current Version | Previous Version | Text Only | Print | Product List | Glossary Off
Versions: 1 2 3 4 5 6 7 8 9 10 11 12 13 14 15 16 17 18 19 20 21 22 23 24 25 26 27

661
FTUS43 KMPX 262335
TAFMSP
TAF
KMSP 262335Z 2700/2806 28007KT P6SM SCT050
     FM270400 12004KT P6SM BKN050
     FM271200 16007KT P6SM BKN070
     FM271800 18010KT P6SM BKN090
     FM272300 15009KT P6SM OVC080=

USA.gov is the U.S. government's official web portal to all federal, state and local government web resources and services.